Elkhart, KS

6:26 AM CDT on October 25, 2014 (GMT -0500)
Springfield | Change Station
CLOSE
Current Station
Airport
Location: Springfield,
Elevation: 4380 ft
Nearby Weather Stations

Elev 4380 ft 37.28 °N, 102.61 °W | Updated 30 minutes ago

Clear
Clear
47 °F
Feels Like 47 °F
N
5
Wind Variable Wind from West
Gusts 8 mph

Today
High -- | Low -- °F
--% Chance of Precip.
Yesterday
High -- | Low -- °F
Precip. -- in
8:04 AM 6:57 PM
Waxing Crescent, 3% visible
Pressure 30.00 in
Visibility -9999.0 miles
Clouds
Dew Point 36 °F
Humidity 66%
Rainfall 0.00 in
Snow Depth Not available.
UV Not available.
Pollen 3.50 out of 12
Air Quality Not available.
Flu Activity No Activity
METAR KSPD 251056Z AUTO 27004KT 08/02 A3014 RMK AO1 SLP157 T00830022

More Conditions Fewer Conditions

Pressure 30.00 in
Visibility -9999.0 miles
Clouds
Dew Point 36 °F
Humidity 66%
Rainfall 0.00 in
Snow Depth Not available.
UV Not available.
Pollen 3.50 out of 12
Air Quality Not available.
Flu Activity No Activity
METAR KSPD 251056Z AUTO 27004KT 08/02 A3014 RMK AO1 SLP157 T00830022

More Conditions Fewer Conditions

10-Day Weather Forecast

Almanac

Astronomy

Oct. 25, 2014 Rise Set
Actual Time 8:04 AM CDT 6:57 PM CDT
Civil Twilight 7:38 AM CDT 7:24 PM CDT
Nautical Twilight 7:07 AM CDT 7:54 PM CDT
Astronomical Twilight 6:37 AM CDT 8:25 PM CDT
Moon 9:43 AM CDT 8:24 PM CDT
Length of Visible Light 11h 46m
Length of Day
10h 53m
Tomorrow will be 2m 10s shorter.
Waxing Crescent, 3% of the Moon is Illuminated
Today
Waxing Crescent
Oct 30
First Quarter
Nov 6
Full
Nov 14
Last Quarter
Nov 22
New

Today's Extremes

State Highs State Lows

Community

WunderPhotos

Upload Photos

1,764,810 photos uploaded!

Nearby

Snow Depth

Station Depth Elevation
No new snow has been reported.

Earthquake Activity

City Distance Mag. Time & Date
No recent earthquake activity has been reported nearby.
Minimum magnitude displayed is 2.5.

Coastal Water Temperatures

Place Temperature
No Stations Reporting

Nearby Weather Stations